sensor_id;sensor_type;location;lat;lon;timestamp;pressure;altitude;pressure_sealevel;temperature;humidity
45523;BME280;31254;51.680;5.394;2022-11-10T00:01:08;101715.38;;;9.99;89.03
45523;BME280;31254;51.680;5.394;2022-11-10T00:03:37;101717.13;;;10.00;89.11
45523;BME280;31254;51.680;5.394;2022-11-10T00:06:05;101732.25;;;10.04;88.86
45523;BME280;31254;51.680;5.394;2022-11-10T00:08:32;101736.81;;;10.04;88.80
45523;BME280;31254;51.680;5.394;2022-11-10T00:11:05;101721.47;;;10.03;88.81
45523;BME280;31254;51.680;5.394;2022-11-10T00:13:35;101726.16;;;10.01;89.25
45523;BME280;31254;51.680;5.394;2022-11-10T00:16:21;101719.22;;;9.97;89.47
45523;BME280;31254;51.680;5.394;2022-11-10T00:19:09;101715.00;;;9.93;89.04
45523;BME280;31254;51.680;5.394;2022-11-10T00:21:38;101719.47;;;9.94;89.31
45523;BME280;31254;51.680;5.394;2022-11-10T00:24:05;101723.06;;;9.94;89.14
45523;BME280;31254;51.680;5.394;2022-11-10T00:26:33;101732.38;;;9.92;89.49
45523;BME280;31254;51.680;5.394;2022-11-10T00:29:00;101735.22;;;9.90;89.40
45523;BME280;31254;51.680;5.394;2022-11-10T00:31:26;101741.66;;;9.89;89.36
45523;BME280;31254;51.680;5.394;2022-11-10T00:33:54;101745.38;;;9.88;89.51
45523;BME280;31254;51.680;5.394;2022-11-10T00:36:21;101759.13;;;9.86;89.88
45523;BME280;31254;51.680;5.394;2022-11-10T00:38:51;101753.69;;;9.86;89.55
45523;BME280;31254;51.680;5.394;2022-11-10T00:41:18;101750.06;;;9.86;89.86
45523;BME280;31254;51.680;5.394;2022-11-10T00:43:45;101758.50;;;9.83;89.95
45523;BME280;31254;51.680;5.394;2022-11-10T00:46:11;101761.22;;;9.83;89.73
45523;BME280;31254;51.680;5.394;2022-11-10T00:48:38;101755.03;;;9.81;89.88
45523;BME280;31254;51.680;5.394;2022-11-10T00:51:11;101760.47;;;9.81;90.08
45523;BME280;31254;51.680;5.394;2022-11-10T00:53:45;101759.63;;;9.80;89.85
45523;BME280;31254;51.680;5.394;2022-11-10T00:56:11;101748.47;;;9.72;90.05
45523;BME280;31254;51.680;5.394;2022-11-10T00:58:38;101768.03;;;9.77;90.19
45523;BME280;31254;51.680;5.394;2022-11-10T01:01:08;101758.13;;;9.76;89.86
45523;BME280;31254;51.680;5.394;2022-11-10T01:03:35;101758.59;;;9.70;90.21
45523;BME280;31254;51.680;5.394;2022-11-10T01:06:12;101762.72;;;9.76;90.55
45523;BME280;31254;51.680;5.394;2022-11-10T01:08:40;101766.28;;;9.76;89.83
45523;BME280;31254;51.680;5.394;2022-11-10T01:11:11;101765.44;;;9.76;90.45
45523;BME280;31254;51.680;5.394;2022-11-10T01:13:39;101766.41;;;9.75;90.25
45523;BME280;31254;51.680;5.394;2022-11-10T01:16:11;101772.09;;;9.72;90.21
45523;BME280;31254;51.680;5.394;2022-11-10T01:18:41;101771.47;;;9.68;90.68
45523;BME280;31254;51.680;5.394;2022-11-10T01:21:08;101787.59;;;9.71;90.69
45523;BME280;31254;51.680;5.394;2022-11-10T01:23:35;101800.25;;;9.72;90.64
45523;BME280;31254;51.680;5.394;2022-11-10T01:26:04;101803.94;;;9.71;90.68
45523;BME280;31254;51.680;5.394;2022-11-10T01:28:35;101797.13;;;9.65;90.54
45523;BME280;31254;51.680;5.394;2022-11-10T01:31:09;101792.41;;;9.67;91.05
45523;BME280;31254;51.680;5.394;2022-11-10T01:33:38;101802.59;;;9.65;90.43
45523;BME280;31254;51.680;5.394;2022-11-10T01:36:07;101805.94;;;9.69;90.69
45523;BME280;31254;51.680;5.394;2022-11-10T01:38:36;101798.72;;;9.68;91.04
45523;BME280;31254;51.680;5.394;2022-11-10T01:41:05;101808.66;;;9.69;91.12
45523;BME280;31254;51.680;5.394;2022-11-10T01:43:33;101810.50;;;9.68;91.06
45523;BME280;31254;51.680;5.394;2022-11-10T01:48:41;101801.69;;;9.65;91.18
45523;BME280;31254;51.680;5.394;2022-11-10T01:51:15;101800.94;;;9.63;91.13
45523;BME280;31254;51.680;5.394;2022-11-10T01:53:47;101800.22;;;9.61;91.27
45523;BME280;31254;51.680;5.394;2022-11-10T01:56:15;101797.63;;;9.59;91.20
45523;BME280;31254;51.680;5.394;2022-11-10T01:58:48;101799.44;;;9.59;91.45
45523;BME280;31254;51.680;5.394;2022-11-10T02:01:21;101804.03;;;9.58;91.63
45523;BME280;31254;51.680;5.394;2022-11-10T02:06:22;101800.44;;;9.58;91.83
45523;BME280;31254;51.680;5.394;2022-11-10T02:08:52;101806.03;;;9.56;91.37
45523;BME280;31254;51.680;5.394;2022-11-10T02:11:22;101801.16;;;9.48;91.63
45523;BME280;31254;51.680;5.394;2022-11-10T02:13:49;101801.44;;;9.57;91.29
45523;BME280;31254;51.680;5.394;2022-11-10T02:16:18;101813.47;;;9.54;91.68
45523;BME280;31254;51.680;5.394;2022-11-10T02:18:44;101819.66;;;9.56;91.41
45523;BME280;31254;51.680;5.394;2022-11-10T02:21:15;101824.09;;;9.57;91.60
45523;BME280;31254;51.680;5.394;2022-11-10T02:23:49;101825.09;;;9.56;91.86
45523;BME280;31254;51.680;5.394;2022-11-10T02:26:25;101842.19;;;9.58;91.63
45523;BME280;31254;51.680;5.394;2022-11-10T02:28:55;101826.31;;;9.52;91.52
45523;BME280;31254;51.680;5.394;2022-11-10T02:31:24;101843.53;;;9.52;91.82
45523;BME280;31254;51.680;5.394;2022-11-10T02:33:53;101852.97;;;9.60;91.70
45523;BME280;31254;51.680;5.394;2022-11-10T02:36:19;101856.53;;;9.60;91.43
45523;BME280;31254;51.680;5.394;2022-11-10T02:38:46;101856.53;;;9.60;91.47
45523;BME280;31254;51.680;5.394;2022-11-10T02:41:12;101855.78;;;9.58;91.75
45523;BME280;31254;51.680;5.394;2022-11-10T02:43:39;101853.06;;;9.58;91.84
45523;BME280;31254;51.680;5.394;2022-11-10T02:46:06;101855.06;;;9.56;91.62
45523;BME280;31254;51.680;5.394;2022-11-10T02:48:32;101858.75;;;9.55;91.90
45523;BME280;31254;51.680;5.394;2022-11-10T02:50:59;101853.78;;;9.49;92.24
45523;BME280;31254;51.680;5.394;2022-11-10T02:53:25;101844.25;;;9.43;92.30
45523;BME280;31254;51.680;5.394;2022-11-10T02:55:52;101856.63;;;9.47;92.20
45523;BME280;31254;51.680;5.394;2022-11-10T02:58:18;101855.88;;;9.45;92.07
45523;BME280;31254;51.680;5.394;2022-11-10T03:00:45;101868.75;;;9.43;92.24
45523;BME280;31254;51.680;5.394;2022-11-10T03:03:11;101872.44;;;9.42;92.45
45523;BME280;31254;51.680;5.394;2022-11-10T03:05:38;101860.81;;;9.40;92.45
45523;BME280;31254;51.680;5.394;2022-11-10T03:08:04;101867.34;;;9.38;92.49
45523;BME280;31254;51.680;5.394;2022-11-10T03:10:31;101875.53;;;9.38;92.46
45523;BME280;31254;51.680;5.394;2022-11-10T03:13:00;101875.63;;;9.36;92.91
45523;BME280;31254;51.680;5.394;2022-11-10T03:15:27;101875.00;;;9.32;92.83
45523;BME280;31254;51.680;5.394;2022-11-10T03:17:54;101876.75;;;9.33;92.83
45523;BME280;31254;51.680;5.394;2022-11-10T03:20:21;101874.38;;;9.29;92.71
45523;BME280;31254;51.680;5.394;2022-11-10T03:22:48;101899.84;;;9.28;93.03
45523;BME280;31254;51.680;5.394;2022-11-10T03:25:14;101886.34;;;9.26;93.49
45523;BME280;31254;51.680;5.394;2022-11-10T03:27:41;101904.56;;;9.26;93.52
45523;BME280;31254;51.680;5.394;2022-11-10T03:30:08;101896.63;;;9.23;93.22
45523;BME280;31254;51.680;5.394;2022-11-10T03:32:35;101894.25;;;9.18;93.07
45523;BME280;31254;51.680;5.394;2022-11-10T03:35:02;101913.69;;;9.25;93.63
45523;BME280;31254;51.680;5.394;2022-11-10T03:37:29;101909.59;;;9.19;93.24
45523;BME280;31254;51.680;5.394;2022-11-10T03:39:55;101918.41;;;9.23;93.29
45523;BME280;31254;51.680;5.394;2022-11-10T03:42:22;101924.84;;;9.22;93.68
45523;BME280;31254;51.680;5.394;2022-11-10T03:44:48;101896.03;;;9.06;93.19
45523;BME280;31254;51.680;5.394;2022-11-10T03:47:15;101921.34;;;9.20;93.59
45523;BME280;31254;51.680;5.394;2022-11-10T03:49:42;101925.94;;;9.19;93.52
45523;BME280;31254;51.680;5.394;2022-11-10T03:52:08;101932.34;;;9.18;93.43
45523;BME280;31254;51.680;5.394;2022-11-10T03:54:35;101926.06;;;9.18;93.49
45523;BME280;31254;51.680;5.394;2022-11-10T03:57:01;101931.50;;;9.18;93.27
45523;BME280;31254;51.680;5.394;2022-11-10T03:59:28;101915.50;;;9.13;93.46
45523;BME280;31254;51.680;5.394;2022-11-10T04:01:54;101910.28;;;9.10;93.73
45523;BME280;31254;51.680;5.394;2022-11-10T04:04:21;101919.63;;;9.19;93.99
45523;BME280;31254;51.680;5.394;2022-11-10T04:07:10;101933.25;;;9.19;93.78
45523;BME280;31254;51.680;5.394;2022-11-10T04:09:56;101946.88;;;9.19;93.23
45523;BME280;31254;51.680;5.394;2022-11-10T04:12:22;101948.81;;;9.17;93.32
45523;BME280;31254;51.680;5.394;2022-11-10T04:15:12;101948.81;;;9.17;93.54
45523;BME280;31254;51.680;5.394;2022-11-10T04:17:57;101957.09;;;9.15;93.41
45523;BME280;31254;51.680;5.394;2022-11-10T04:20:44;101964.38;;;9.14;93.40
45523;BME280;31254;51.680;5.394;2022-11-10T04:23:14;101966.16;;;9.15;93.78
45523;BME280;31254;51.680;5.394;2022-11-10T04:25:55;101969.09;;;9.12;93.69
45523;BME280;31254;51.680;5.394;2022-11-10T04:28:41;101973.69;;;9.12;93.39
45523;BME280;31254;51.680;5.394;2022-11-10T04:31:08;101971.19;;;9.09;93.56
45523;BME280;31254;51.680;5.394;2022-11-10T04:33:36;101984.41;;;9.13;93.82
45523;BME280;31254;51.680;5.394;2022-11-10T04:36:03;101981.94;;;9.10;93.83
45523;BME280;31254;51.680;5.394;2022-11-10T04:38:32;101960.31;;;8.96;93.89
45523;BME280;31254;51.680;5.394;2022-11-10T04:40:59;101998.28;;;9.10;94.07
45523;BME280;31254;51.680;5.394;2022-11-10T04:43:26;102004.59;;;9.11;94.32
45523;BME280;31254;51.680;5.394;2022-11-10T04:45:53;102013.72;;;9.10;93.96
45523;BME280;31254;51.680;5.394;2022-11-10T04:48:20;102019.06;;;9.11;94.12
45523;BME280;31254;51.680;5.394;2022-11-10T04:50:49;102011.91;;;9.10;94.55
45523;BME280;31254;51.680;5.394;2022-11-10T04:53:16;102014.06;;;9.05;94.46
45523;BME280;31254;51.680;5.394;2022-11-10T04:55:46;102017.56;;;9.07;94.37
45523;BME280;31254;51.680;5.394;2022-11-10T04:58:13;102026.47;;;9.09;94.57
45523;BME280;31254;51.680;5.394;2022-11-10T05:00:40;102029.31;;;9.08;94.34
45523;BME280;31254;51.680;5.394;2022-11-10T05:03:09;102021.47;;;9.03;94.63
45523;BME280;31254;51.680;5.394;2022-11-10T05:05:38;102031.41;;;9.04;94.95
45523;BME280;31254;51.680;5.394;2022-11-10T05:08:06;102027.66;;;9.05;95.08
45523;BME280;31254;51.680;5.394;2022-11-10T05:10:36;102027.25;;;8.99;95.13
45523;BME280;31254;51.680;5.394;2022-11-10T05:13:04;102042.38;;;9.03;94.96
45523;BME280;31254;51.680;5.394;2022-11-10T05:15:31;102026.16;;;9.01;95.26
45523;BME280;31254;51.680;5.394;2022-11-10T05:17:58;102029.75;;;9.02;95.08
45523;BME280;31254;51.680;5.394;2022-11-10T05:20:25;101992.88;;;8.85;94.92
45523;BME280;31254;51.680;5.394;2022-11-10T05:22:52;102030.66;;;9.02;95.12
45523;BME280;31254;51.680;5.394;2022-11-10T05:25:40;102026.16;;;9.01;95.01
45523;BME280;31254;51.680;5.394;2022-11-10T05:28:08;102026.16;;;9.01;94.91
45523;BME280;31254;51.680;5.394;2022-11-10T05:30:35;102034.34;;;9.01;95.23
45523;BME280;31254;51.680;5.394;2022-11-10T05:33:02;102045.22;;;9.01;95.44
45523;BME280;31254;51.680;5.394;2022-11-10T05:35:32;102038.91;;;9.01;95.22
45523;BME280;31254;51.680;5.394;2022-11-10T05:37:58;102042.81;;;8.96;95.40
45523;BME280;31254;51.680;5.394;2022-11-10T05:40:27;102052.63;;;8.99;95.08
45523;BME280;31254;51.680;5.394;2022-11-10T05:42:54;102054.25;;;9.02;95.45
45523;BME280;31254;51.680;5.394;2022-11-10T05:45:24;102054.34;;;9.00;95.01
45523;BME280;31254;51.680;5.394;2022-11-10T05:47:51;102059.91;;;8.99;95.17
45523;BME280;31254;51.680;5.394;2022-11-10T05:50:20;102057.28;;;8.97;95.58
45523;BME280;31254;51.680;5.394;2022-11-10T05:52:48;102051.97;;;8.95;95.15
45523;BME280;31254;51.680;5.394;2022-11-10T05:55:19;102062.75;;;8.97;95.34
45523;BME280;31254;51.680;5.394;2022-11-10T05:57:49;102066.34;;;8.98;95.45
45523;BME280;31254;51.680;5.394;2022-11-10T06:00:28;102070.91;;;8.97;95.41
45523;BME280;31254;51.680;5.394;2022-11-10T06:03:06;102077.34;;;8.96;95.34
45523;BME280;31254;51.680;5.394;2022-11-10T06:05:34;102082.69;;;8.98;95.70
45523;BME280;31254;51.680;5.394;2022-11-10T06:08:02;102081.78;;;8.97;95.33
45523;BME280;31254;51.680;5.394;2022-11-10T06:10:33;102078.31;;;8.95;95.56
45523;BME280;31254;51.680;5.394;2022-11-10T06:13:00;102074.84;;;8.93;95.68
45523;BME280;31254;51.680;5.394;2022-11-10T06:15:27;102072.88;;;8.95;95.75
45523;BME280;31254;51.680;5.394;2022-11-10T06:17:54;102074.75;;;8.94;95.79
45523;BME280;31254;51.680;5.394;2022-11-10T06:20:22;102083.13;;;8.91;95.38
45523;BME280;31254;51.680;5.394;2022-11-10T06:23:02;102080.06;;;8.96;95.86
45523;BME280;31254;51.680;5.394;2022-11-10T06:25:34;102091.94;;;8.95;95.81
45523;BME280;31254;51.680;5.394;2022-11-10T06:28:01;102100.09;;;8.95;95.76
45523;BME280;31254;51.680;5.394;2022-11-10T06:30:29;102100.94;;;8.95;95.88
45523;BME280;31254;51.680;5.394;2022-11-10T06:32:56;102102.81;;;8.95;95.82
45523;BME280;31254;51.680;5.394;2022-11-10T06:35:24;102110.13;;;8.94;96.19
45523;BME280;31254;51.680;5.394;2022-11-10T06:40:27;102120.47;;;8.89;95.83
45523;BME280;31254;51.680;5.394;2022-11-10T06:42:54;102141.03;;;8.93;95.99
45523;BME280;31254;51.680;5.394;2022-11-10T06:45:21;102135.78;;;8.90;95.84
45523;BME280;31254;51.680;5.394;2022-11-10T06:47:48;102147.56;;;8.91;96.29
45523;BME280;31254;51.680;5.394;2022-11-10T06:50:23;102149.28;;;8.92;96.19
45523;BME280;31254;51.680;5.394;2022-11-10T06:52:57;102151.38;;;8.88;96.40
45523;BME280;31254;51.680;5.394;2022-11-10T06:55:24;102160.19;;;8.92;96.46
45523;BME280;31254;51.680;5.394;2022-11-10T06:57:53;102165.41;;;8.95;96.12
45523;BME280;31254;51.680;5.394;2022-11-10T07:00:20;102161.72;;;8.96;95.96
45523;BME280;31254;51.680;5.394;2022-11-10T07:02:47;102156.28;;;8.96;96.32
45523;BME280;31254;51.680;5.394;2022-11-10T07:05:14;102153.56;;;8.96;95.96
45523;BME280;31254;51.680;5.394;2022-11-10T07:07:41;102156.28;;;8.96;96.32
45523;BME280;31254;51.680;5.394;2022-11-10T07:10:10;102168.25;;;9.06;95.67
45523;BME280;31254;51.680;5.394;2022-11-10T07:12:37;102169.78;;;9.10;95.65
45523;BME280;31254;51.680;5.394;2022-11-10T07:15:03;102183.97;;;9.28;94.89
45523;BME280;31254;51.680;5.394;2022-11-10T07:17:30;102195.28;;;9.35;94.84
45523;BME280;31254;51.680;5.394;2022-11-10T07:19:57;102195.50;;;9.32;95.08
45523;BME280;31254;51.680;5.394;2022-11-10T07:22:24;102198.31;;;9.30;95.00
45523;BME280;31254;51.680;5.394;2022-11-10T07:24:53;102210.09;;;9.31;95.20
45523;BME280;31254;51.680;5.394;2022-11-10T07:27:19;102214.78;;;9.29;95.62
45523;BME280;31254;51.680;5.394;2022-11-10T07:29:48;102213.81;;;9.30;95.69
45523;BME280;31254;51.680;5.394;2022-11-10T07:32:15;102226.41;;;9.31;95.48
45523;BME280;31254;51.680;5.394;2022-11-10T07:34:46;102215.41;;;9.32;95.76
45523;BME280;31254;51.680;5.394;2022-11-10T07:37:13;102213.59;;;9.33;95.59
45523;BME280;31254;51.680;5.394;2022-11-10T07:39:42;102221.50;;;9.36;95.23
45523;BME280;31254;51.680;5.394;2022-11-10T07:42:08;102217.94;;;9.36;95.53
45523;BME280;31254;51.680;5.394;2022-11-10T07:44:35;102211.50;;;9.37;95.18
45523;BME280;31254;51.680;5.394;2022-11-10T07:47:01;102213.91;;;9.41;95.41
45523;BME280;31254;51.680;5.394;2022-11-10T07:49:28;102214.78;;;9.42;95.61
45523;BME280;31254;51.680;5.394;2022-11-10T07:51:54;102208.09;;;9.46;95.71
45523;BME280;31254;51.680;5.394;2022-11-10T07:54:21;102210.50;;;9.50;95.14
45523;BME280;31254;51.680;5.394;2022-11-10T07:56:48;102219.47;;;9.52;95.32
45523;BME280;31254;51.680;5.394;2022-11-10T07:59:14;102215.97;;;9.50;95.31
45523;BME280;31254;51.680;5.394;2022-11-10T08:01:41;102226.22;;;9.60;95.29
45523;BME280;31254;51.680;5.394;2022-11-10T08:04:08;102237.75;;;9.63;94.83
45523;BME280;31254;51.680;5.394;2022-11-10T08:06:34;102241.13;;;9.67;95.07
45523;BME280;31254;51.680;5.394;2022-11-10T08:09:05;102248.97;;;9.72;95.14
45523;BME280;31254;51.680;5.394;2022-11-10T08:11:32;102261.28;;;9.77;94.74
45523;BME280;31254;51.680;5.394;2022-11-10T08:13:59;102267.28;;;9.82;94.54
45523;BME280;31254;51.680;5.394;2022-11-10T08:16:25;102254.50;;;9.83;94.88
45523;BME280;31254;51.680;5.394;2022-11-10T08:18:52;102264.00;;;9.90;94.74
45523;BME280;31254;51.680;5.394;2022-11-10T08:21:19;102260.97;;;9.95;94.62
45523;BME280;31254;51.680;5.394;2022-11-10T08:23:47;102267.06;;;9.98;94.58
45523;BME280;31254;51.680;5.394;2022-11-10T08:26:16;102262.13;;;10.03;94.29
45523;BME280;31254;51.680;5.394;2022-11-10T08:28:43;102260.03;;;10.07;94.19
45523;BME280;31254;51.680;5.394;2022-11-10T08:31:10;102263.19;;;10.14;94.11
45523;BME280;31254;51.680;5.394;2022-11-10T08:33:37;102259.16;;;10.19;94.47
45523;BME280;31254;51.680;5.394;2022-11-10T08:36:03;102246.25;;;10.21;94.42
45523;BME280;31254;51.680;5.394;2022-11-10T08:38:32;102266.66;;;10.29;93.77
45523;BME280;31254;51.680;5.394;2022-11-10T08:40:59;102269.94;;;10.34;93.94
45523;BME280;31254;51.680;5.394;2022-11-10T08:43:25;102272.97;;;10.42;93.52
45523;BME280;31254;51.680;5.394;2022-11-10T08:45:53;102267.28;;;10.45;93.68
45523;BME280;31254;51.680;5.394;2022-11-10T08:48:22;102282.94;;;10.54;93.32
45523;BME280;31254;51.680;5.394;2022-11-10T08:50:49;102279.53;;;10.64;93.18
45523;BME280;31254;51.680;5.394;2022-11-10T08:53:19;102280.19;;;10.67;93.33
45523;BME280;31254;51.680;5.394;2022-11-10T08:55:47;102269.69;;;10.74;93.20
45523;BME280;31254;51.680;5.394;2022-11-10T08:58:15;102287.84;;;10.86;92.51
45523;BME280;31254;51.680;5.394;2022-11-10T09:00:43;102284.66;;;10.92;92.48
45523;BME280;31254;51.680;5.394;2022-11-10T09:03:16;102292.94;;;11.15;92.13
45523;BME280;31254;51.680;5.394;2022-11-10T09:05:47;102289.56;;;11.47;90.15
45523;BME280;31254;51.680;5.394;2022-11-10T09:08:22;102306.66;;;11.84;88.75
45523;BME280;31254;51.680;5.394;2022-11-10T09:10:51;102305.06;;;12.04;87.97
45523;BME280;31254;51.680;5.394;2022-11-10T09:13:19;102308.94;;;12.24;87.29
45523;BME280;31254;51.680;5.394;2022-11-10T09:15:59;102302.69;;;12.34;86.96
45523;BME280;31254;51.680;5.394;2022-11-10T09:18:25;102300.19;;;12.42;86.95
45523;BME280;31254;51.680;5.394;2022-11-10T09:20:52;102309.00;;;12.57;86.29
45523;BME280;31254;51.680;5.394;2022-11-10T09:23:21;102309.97;;;12.67;86.20
45523;BME280;31254;51.680;5.394;2022-11-10T09:25:52;102307.59;;;12.74;85.99
45523;BME280;31254;51.680;5.394;2022-11-10T09:28:20;102310.09;;;12.66;86.78
45523;BME280;31254;51.680;5.394;2022-11-10T09:30:48;102307.69;;;12.84;86.00
45523;BME280;31254;51.680;5.394;2022-11-10T09:33:18;102303.53;;;12.89;85.64
45523;BME280;31254;51.680;5.394;2022-11-10T09:35:45;102303.91;;;12.96;85.62
45523;BME280;31254;51.680;5.394;2022-11-10T09:38:12;102304.91;;;12.95;85.53
45523;BME280;31254;51.680;5.394;2022-11-10T09:41:02;102325.28;;;13.02;85.79
45523;BME280;31254;51.680;5.394;2022-11-10T09:46:25;102320.72;;;13.24;84.35
45523;BME280;31254;51.680;5.394;2022-11-10T09:49:01;102319.31;;;13.29;84.38
45523;BME280;31254;51.680;5.394;2022-11-10T09:51:35;102312.25;;;13.27;84.41
45523;BME280;31254;51.680;5.394;2022-11-10T09:56:48;102315.34;;;13.33;84.69
45523;BME280;31254;51.680;5.394;2022-11-10T09:59:24;102322.03;;;13.41;84.56
45523;BME280;31254;51.680;5.394;2022-11-10T10:10:46;102343.13;;;13.61;84.12
45523;BME280;31254;51.680;5.394;2022-11-10T10:18:53;102368.97;;;13.89;83.68
45523;BME280;31254;51.680;5.394;2022-11-10T10:24:11;102366.66;;;14.06;83.28
45523;BME280;31254;51.680;5.394;2022-11-10T10:26:51;102368.09;;;14.10;83.06
45523;BME280;31254;51.680;5.394;2022-11-10T10:29:23;102374.31;;;14.12;82.69
45523;BME280;31254;51.680;5.394;2022-11-10T10:31:51;102380.56;;;14.14;82.80
45523;BME280;31254;51.680;5.394;2022-11-10T10:34:27;102387.03;;;14.13;82.04
45523;BME280;31254;51.680;5.394;2022-11-10T10:36:55;102401.53;;;14.25;82.00
45523;BME280;31254;51.680;5.394;2022-11-10T10:39:33;102395.38;;;14.33;81.73
45523;BME280;31254;51.680;5.394;2022-11-10T10:42:05;102401.91;;;14.41;81.88
45523;BME280;31254;51.680;5.394;2022-11-10T10:44:32;102409.31;;;14.51;81.51
45523;BME280;31254;51.680;5.394;2022-11-10T10:47:01;102408.06;;;14.55;81.10
45523;BME280;31254;51.680;5.394;2022-11-10T10:49:30;102407.84;;;14.68;80.50
45523;BME280;31254;51.680;5.394;2022-11-10T10:52:03;102414.50;;;14.75;80.40
45523;BME280;31254;51.680;5.394;2022-11-10T10:54:35;102400.50;;;14.78;80.81
45523;BME280;31254;51.680;5.394;2022-11-10T10:57:21;102403.56;;;14.94;80.07
45523;BME280;31254;51.680;5.394;2022-11-10T10:59:51;102392.75;;;15.03;80.10
45523;BME280;31254;51.680;5.394;2022-11-10T11:02:37;102407.38;;;15.03;80.07
45523;BME280;31254;51.680;5.394;2022-11-10T11:05:15;102397.66;;;14.99;77.61
45523;BME280;31254;51.680;5.394;2022-11-10T11:08:15;102380.75;;;15.13;78.42
45523;BME280;31254;51.680;5.394;2022-11-10T11:10:44;102386.84;;;15.27;78.07
45523;BME280;31254;51.680;5.394;2022-11-10T11:13:26;102379.91;;;15.32;78.08
45523;BME280;31254;51.680;5.394;2022-11-10T11:16:00;102387.75;;;15.47;77.75
45523;BME280;31254;51.680;5.394;2022-11-10T11:18:30;102383.53;;;15.52;77.52
45523;BME280;31254;51.680;5.394;2022-11-10T11:21:05;102378.88;;;15.63;77.38
45523;BME280;31254;51.680;5.394;2022-11-10T11:37:44;102396.94;;;16.04;75.69
45523;BME280;31254;51.680;5.394;2022-11-10T11:40:28;102410.56;;;16.06;75.88
45523;BME280;31254;51.680;5.394;2022-11-10T11:51:16;102417.09;;;15.95;75.33
45523;BME280;31254;51.680;5.394;2022-11-10T11:54:18;102440.13;;;16.04;75.58
45523;BME280;31254;51.680;5.394;2022-11-10T11:56:48;102445.19;;;16.08;75.34
45523;BME280;31254;51.680;5.394;2022-11-10T12:00:16;102451.28;;;16.12;75.15
45523;BME280;31254;51.680;5.394;2022-11-10T12:05:51;102456.31;;;16.26;75.13
45523;BME280;31254;51.680;5.394;2022-11-10T12:08:47;102457.28;;;16.35;74.86
45523;BME280;31254;51.680;5.394;2022-11-10T12:11:38;102463.78;;;16.44;74.37
45523;BME280;31254;51.680;5.394;2022-11-10T12:17:44;102454.94;;;16.50;74.34
45523;BME280;31254;51.680;5.394;2022-11-10T12:28:47;102457.22;;;16.55;72.00
45523;BME280;31254;51.680;5.394;2022-11-10T12:31:20;102455.81;;;16.51;72.36
45523;BME280;31254;51.680;5.394;2022-11-10T12:33:52;102447.88;;;16.38;72.38
45523;BME280;31254;51.680;5.394;2022-11-10T12:36:23;102458.13;;;16.45;69.99
45523;BME280;31254;51.680;5.394;2022-11-10T12:41:32;102461.22;;;16.42;70.91
45523;BME280;31254;51.680;5.394;2022-11-10T12:46:30;102460.84;;;16.55;69.72
45523;BME280;31254;51.680;5.394;2022-11-10T12:51:37;102452.75;;;16.54;70.37
45523;BME280;31254;51.680;5.394;2022-11-10T12:54:10;102460.53;;;16.58;68.69
45523;BME280;31254;51.680;5.394;2022-11-10T12:56:54;102464.47;;;16.66;69.44
45523;BME280;31254;51.680;5.394;2022-11-10T12:59:32;102468.63;;;16.70;69.76
45523;BME280;31254;51.680;5.394;2022-11-10T13:02:05;102475.78;;;16.62;69.79
45523;BME280;31254;51.680;5.394;2022-11-10T13:04:43;102474.75;;;16.63;67.52
45523;BME280;31254;51.680;5.394;2022-11-10T13:07:12;102471.50;;;16.78;66.61
45523;BME280;31254;51.680;5.394;2022-11-10T13:09:41;102464.16;;;16.69;66.57
45523;BME280;31254;51.680;5.394;2022-11-10T13:14:36;102468.38;;;16.63;67.44
45523;BME280;31254;51.680;5.394;2022-11-10T13:17:04;102472.47;;;16.59;68.16
45523;BME280;31254;51.680;5.394;2022-11-10T13:22:08;102479.00;;;16.48;68.48
45523;BME280;31254;51.680;5.394;2022-11-10T13:24:40;102467.44;;;16.44;68.56
45523;BME280;31254;51.680;5.394;2022-11-10T13:27:47;102468.41;;;16.53;65.66
45523;BME280;31254;51.680;5.394;2022-11-10T13:29:59;102484.13;;;16.80;64.25
45523;BME280;31254;51.680;5.394;2022-11-10T13:32:28;102492.41;;;16.71;65.87
45523;BME280;31254;51.680;5.394;2022-11-10T13:37:54;102497.53;;;16.56;67.01
45523;BME280;31254;51.680;5.394;2022-11-10T13:56:23;102461.66;;;16.75;63.05
45523;BME280;31254;51.680;5.394;2022-11-10T13:58:58;102452.47;;;16.47;65.07
45523;BME280;31254;51.680;5.394;2022-11-10T14:01:26;102455.25;;;16.37;65.19
45523;BME280;31254;51.680;5.394;2022-11-10T14:03:57;102472.53;;;16.39;65.74
45523;BME280;31254;51.680;5.394;2022-11-10T14:06:44;102475.16;;;16.31;66.42
45523;BME280;31254;51.680;5.394;2022-11-10T14:11:52;102440.69;;;16.07;65.72
45523;BME280;31254;51.680;5.394;2022-11-10T14:15:11;102467.06;;;16.20;66.42
45523;BME280;31254;51.680;5.394;2022-11-10T14:17:26;102470.25;;;16.15;66.64
45523;BME280;31254;51.680;5.394;2022-11-10T14:19:54;102458.94;;;16.18;65.28
45523;BME280;31254;51.680;5.394;2022-11-10T14:27:31;102445.78;;;16.02;67.07
45523;BME280;31254;51.680;5.394;2022-11-10T14:35:25;102461.00;;;15.87;67.29
45523;BME280;31254;51.680;5.394;2022-11-10T14:37:57;102458.38;;;15.85;67.33
45523;BME280;31254;51.680;5.394;2022-11-10T14:40:24;102463.47;;;15.80;67.30
45523;BME280;31254;51.680;5.394;2022-11-10T14:42:54;102474.59;;;15.79;67.58
45523;BME280;31254;51.680;5.394;2022-11-10T14:45:23;102481.28;;;15.76;67.36
45523;BME280;31254;51.680;5.394;2022-11-10T14:47:59;102490.22;;;15.68;67.55
45523;BME280;31254;51.680;5.394;2022-11-10T14:50:34;102493.69;;;15.61;67.80
45523;BME280;31254;51.680;5.394;2022-11-10T14:53:12;102488.75;;;15.54;67.96
45523;BME280;31254;51.680;5.394;2022-11-10T14:55:42;102493.97;;;15.48;68.15
45523;BME280;31254;51.680;5.394;2022-11-10T14:58:11;102498.16;;;15.42;68.12
45523;BME280;31254;51.680;5.394;2022-11-10T15:00:41;102495.09;;;15.35;68.30
45523;BME280;31254;51.680;5.394;2022-11-10T15:03:16;102478.28;;;15.29;68.52
45523;BME280;31254;51.680;5.394;2022-11-10T15:05:46;102478.25;;;15.19;68.53